METAR Data
IDs: Format: Raw Decoded Include TAF

Data at: 1702 UTC 24 Aug 2019

PACV 241653Z 00000KT 10SM FEW012 SCT060 BKN120 12/09 A2962 RMK AO2 SLP030 T01220089
PACV 241553Z 00000KT 9SM SCT040 BKN120 09/08 A2961 RMK AO2 SLP028 T00940078
PACV 241453Z 00000KT 9SM SCT014 BKN036 OVC100 09/08 A2960 RMK AO2 RAB02E34 SLP024 P0001 60001 T00940083 53007
PACV 241353Z 00000KT 10SM BKN090 OVC110 09/07 A2959 RMK AO2 SLP020 T00890067
PACV 241253Z 00000KT 10SM FEW090 OVC110 09/07 A2958 RMK AO2 SLP018 T00890067
PACV 241153Z 00000KT 10SM BKN100 09/06 A2958 RMK AO2 SLP017 T00890061 10117 20089 53010
PACV 241053Z 00000KT 10SM OVC100 10/07 A2957 RMK AO2 SLP013 T01000067
PACV 240953Z 00000KT 10SM OVC110 11/07 A2956 RMK AO2 SLP010 T01060067
PACV 240853Z 06003KT 10SM OVC110 11/07 A2955 RMK AO2 SLP007 T01060067 401890033 51009
PACV 240753Z 00000KT 10SM FEW100 BKN200 11/07 A2954 RMK AO2 SLP004 T01060072
PACV 240653Z 00000KT 10SM FEW100 BKN200 11/08 A2954 RMK AO2 SLP002 T01060078
PACV 240553Z 00000KT 10SM SCT100 BKN200 12/09 A2953 RMK AO2 SLP998 T01170094 10189 20111 53008
PACV 240453Z 00000KT 10SM BKN220 13/11 A2952 RMK AO2 SLP995 T01330106
PACV 240353Z 21003KT 10SM BKN200 15/11 A2951 RMK AO2 SLP992 T01500111
PACV 240253Z 20004KT 10SM SCT100 17/10 A2950 RMK AO2 SLP990 T01670100 51006
PACV 240153Z VRB04KT 10SM SCT100 18/09 A2949 RMK AO2 SLP988 T01780094
PACV 240053Z 23005KT 10SM FEW040 SCT200 18/09 A2949 RMK AO2 SLP987 T01780094
PACV 232353Z 21006KT 10SM CLR 19/09 A2948 RMK AO2 SLP983 T01890094 10189 20122 53006
PACV 232253Z 22007KT 10SM BKN200 18/09 A2948 RMK AO2 SLP982 T01830089
PACV 232153Z VRB04KT 10SM BKN200 19/09 A2947 RMK AO2 SLP978 T01890094
PACV 232053Z COR VRB03KT 10SM BKN200 18/08 A2946 RMK AO2 SLP977 T01830083 53001
PACV 231953Z 00000KT 10SM FEW200 17/08 A2946 RMK AO2 SLP976 T01670083
PACV 231853Z 00000KT 10SM CLR 15/08 A2946 RMK AO2 SLP976 T01500078
PACV 231753Z 00000KT 10SM CLR 12/07 A2946 RMK AO2 SLP976 T01220072 10122 20033 53002
PACV 231653Z 00000KT 10SM CLR 09/07 A2946 RMK AO2 SLP975 T00940072
PACV 231553Z 00000KT 10SM CLR 06/04 A2946 RMK AO2 SLP975 T00560039
PACV 231453Z 00000KT 7SM CLR 03/03 A2945 RMK AO2 SLP974 T00330028 53001
PACV 231353Z 00000KT 9SM CLR 04/03 A2945 RMK AO2 SLP974 T00390028
PACV 231253Z 00000KT 10SM CLR 05/03 A2945 RMK AO2 SLP973 T00500033
PACV 231153Z 00000KT 10SM CLR 06/04 A2945 RMK AO2 SLP973 T00610039 10089 20039 56012
PACV 231053Z 10003KT 10SM CLR 04/03 A2946 RMK AO2 SLP976 T00440033
PACV 230953Z 00000KT 10SM CLR 04/03 A2947 RMK AO2 SLP978 T00440033
PACV 230853Z 00000KT 10SM CLR 05/03 A2948 RMK AO2 SLP984 T00500033 402000039 56019
PACV 230753Z 00000KT 10SM FEW110 06/04 A2950 RMK AO2 SLP989 T00610044
PACV 230653Z 00000KT 10SM FEW110 07/05 A2952 RMK AO2 SLP996 T00670050
PACV 230553Z 00000KT 10SM FEW110 SCT200 09/07 A2954 RMK AO2 SLP003 60000 T00890067 10161 20089 56015